createdAt,value
2023-04-17T00:02:25.597Z,76.99
2023-04-17T00:04:52.502Z,76.65
2023-04-17T00:07:22.563Z,76.44
2023-04-17T00:09:49.069Z,76.51
2023-04-17T00:12:16.019Z,76.34
2023-04-17T00:14:42.403Z,76.29
2023-04-17T00:17:08.744Z,76.38
2023-04-17T00:19:35.118Z,76.45
2023-04-17T00:22:01.634Z,76.44
2023-04-17T00:24:27.964Z,76.77
2023-04-17T00:26:54.396Z,76.68
2023-04-17T00:29:20.717Z,76.51
2023-04-17T00:31:47.437Z,76.64
2023-04-17T00:34:13.994Z,76.52
2023-04-17T00:36:40.388Z,76.20
2023-04-17T00:39:06.727Z,76.32
2023-04-17T00:41:33.066Z,76.21
2023-04-17T00:43:59.394Z,76.29
2023-04-17T00:46:25.919Z,76.38
2023-04-17T00:48:52.543Z,76.28
2023-04-17T00:51:19.010Z,75.98
2023-04-17T00:53:45.831Z,76.18
2023-04-17T00:56:13.012Z,75.75
2023-04-17T00:58:40.550Z,75.82
2023-04-17T01:01:06.973Z,76.10
2023-04-17T01:03:33.868Z,75.58
2023-04-17T01:06:01.402Z,76.05
2023-04-17T01:08:27.983Z,76.12
2023-04-17T01:10:54.338Z,75.87
2023-04-17T01:13:20.775Z,75.83
2023-04-17T01:15:47.244Z,75.69
2023-04-17T01:18:13.659Z,75.94
2023-04-17T01:20:40.090Z,75.75
2023-04-17T01:23:06.447Z,75.88
2023-04-17T01:25:33.144Z,76.06
2023-04-17T01:27:59.522Z,76.23
2023-04-17T01:30:26.137Z,75.84
2023-04-17T01:32:54.331Z,76.13
2023-04-17T01:35:20.969Z,75.86
2023-04-17T01:37:47.467Z,76.00
2023-04-17T01:40:13.816Z,75.97
2023-04-17T01:42:40.290Z,76.16
2023-04-17T01:45:07.328Z,75.85
2023-04-17T01:47:33.754Z,75.83
2023-04-17T01:50:00.626Z,75.75
2023-04-17T01:52:27.038Z,75.51
2023-04-17T01:54:53.355Z,75.13
2023-04-17T01:57:19.724Z,75.21
2023-04-17T01:59:46.117Z,75.23
2023-04-17T02:02:12.610Z,75.27
2023-04-17T02:04:39.045Z,75.20
2023-04-17T02:07:05.516Z,75.14
2023-04-17T02:09:32.201Z,75.12
2023-04-17T02:11:58.651Z,75.18
2023-04-17T02:14:25.010Z,75.02
2023-04-17T02:16:51.324Z,74.54
2023-04-17T02:19:17.662Z,74.64
2023-04-17T02:21:44.001Z,74.14
2023-04-17T02:24:10.651Z,74.24
2023-04-17T02:26:37.066Z,74.00
2023-04-17T02:29:03.465Z,74.30
2023-04-17T02:31:30.008Z,74.16
2023-04-17T02:33:56.374Z,73.80
2023-04-17T02:36:22.739Z,73.60
2023-04-17T02:38:49.051Z,73.60
2023-04-17T02:41:15.448Z,73.77
2023-04-17T02:43:41.944Z,73.57
2023-04-17T02:46:08.368Z,73.38
2023-04-17T02:48:34.699Z,73.47
2023-04-17T02:51:01.182Z,72.99
2023-04-17T02:53:27.503Z,72.82
2023-04-17T02:55:53.841Z,72.88
2023-04-17T02:58:20.167Z,73.03
2023-04-17T03:00:46.667Z,72.83
2023-04-17T03:03:13.237Z,72.49
2023-04-17T03:05:39.881Z,72.79
2023-04-17T03:08:06.598Z,72.84
2023-04-17T03:10:32.933Z,73.18
2023-04-17T03:12:59.295Z,72.77
2023-04-17T03:15:25.661Z,72.66
2023-04-17T03:17:52.172Z,72.78
2023-04-17T03:20:18.769Z,72.93
2023-04-17T03:22:45.157Z,72.77
2023-04-17T03:25:11.546Z,72.42
2023-04-17T03:27:38.748Z,72.42
2023-04-17T03:30:06.130Z,72.19
2023-04-17T03:32:32.854Z,72.14
2023-04-17T03:34:59.536Z,71.88
2023-04-17T03:37:25.896Z,71.95
2023-04-17T03:39:52.217Z,72.11
2023-04-17T03:42:18.781Z,72.02
2023-04-17T03:44:45.233Z,72.12
2023-04-17T03:47:11.614Z,72.12
2023-04-17T03:49:38.009Z,71.57
2023-04-17T03:52:04.449Z,71.96
2023-04-17T03:54:35.208Z,71.83
2023-04-17T03:57:02.972Z,71.99
2023-04-17T03:59:31.276Z,71.95
2023-04-17T04:01:57.992Z,71.56
2023-04-17T04:04:24.976Z,71.77
2023-04-17T04:06:54.404Z,72.10
2023-04-17T04:09:21.265Z,71.77
2023-04-17T04:11:47.719Z,72.17
2023-04-17T04:14:14.577Z,72.25
2023-04-17T04:16:41.307Z,72.27
2023-04-17T04:19:07.665Z,72.13
2023-04-17T04:21:34.414Z,72.21
2023-04-17T04:24:00.886Z,72.19
2023-04-17T04:26:27.241Z,71.93
2023-04-17T04:28:53.594Z,71.83
2023-04-17T04:31:20.287Z,72.02
2023-04-17T04:33:46.774Z,72.04
2023-04-17T04:36:14.015Z,72.13
2023-04-17T04:38:40.347Z,72.03
2023-04-17T04:41:10.134Z,72.08
2023-04-17T04:43:36.925Z,71.95
2023-04-17T04:46:03.983Z,71.98
2023-04-17T04:48:30.482Z,71.86
2023-04-17T04:50:57.008Z,71.95
2023-04-17T04:53:23.429Z,72.02
2023-04-17T04:55:49.884Z,71.72
2023-04-17T04:58:16.335Z,71.67
2023-04-17T05:00:43.546Z,71.85
2023-04-17T05:03:10.158Z,71.76
2023-04-17T05:05:37.598Z,72.06
2023-04-17T05:08:04.146Z,71.98
2023-04-17T05:10:30.855Z,71.94
2023-04-17T05:12:57.367Z,71.95
2023-04-17T05:15:23.691Z,71.69
2023-04-17T05:17:50.191Z,71.51
2023-04-17T05:20:16.739Z,71.73
2023-04-17T05:22:43.161Z,71.53
2023-04-17T05:25:09.664Z,71.49
2023-04-17T05:27:36.057Z,71.63
2023-04-17T05:30:02.498Z,71.73
2023-04-17T05:32:31.173Z,71.85
2023-04-17T05:34:57.536Z,71.47
2023-04-17T05:37:23.902Z,71.51
2023-04-17T05:39:50.558Z,71.39
2023-04-17T05:42:17.407Z,71.62
2023-04-17T05:44:43.753Z,71.53
2023-04-17T05:47:10.144Z,71.48
2023-04-17T05:49:36.564Z,70.94
2023-04-17T05:52:02.888Z,71.38
2023-04-17T05:54:30.221Z,71.12
2023-04-17T05:56:56.819Z,71.11
2023-04-17T05:59:23.194Z,71.35
2023-04-17T06:01:49.530Z,71.46
2023-04-17T06:04:18.061Z,71.48
2023-04-17T06:06:44.933Z,71.64
2023-04-17T06:09:11.905Z,71.36
2023-04-17T06:11:38.672Z,71.45
2023-04-17T06:14:05.351Z,71.01
2023-04-17T06:16:31.781Z,71.37
2023-04-17T06:18:58.260Z,71.35
2023-04-17T06:21:24.707Z,71.67
2023-04-17T06:23:51.962Z,71.22
2023-04-17T06:26:18.369Z,70.97
2023-04-17T06:28:44.871Z,70.51
2023-04-17T06:31:12.070Z,70.55
2023-04-17T06:33:38.514Z,70.83
2023-04-17T06:36:05.165Z,70.52
2023-04-17T06:38:31.599Z,70.88
2023-04-17T06:40:58.009Z,70.18
2023-04-17T06:43:24.584Z,70.41
2023-04-17T06:45:51.082Z,70.26
2023-04-17T06:48:17.507Z,70.33
2023-04-17T06:50:43.891Z,70.22
2023-04-17T06:53:10.396Z,70.40
2023-04-17T06:55:36.757Z,70.73
2023-04-17T06:58:04.058Z,70.43
2023-04-17T07:00:30.488Z,70.40
2023-04-17T07:02:56.938Z,70.26
2023-04-17T07:05:23.373Z,69.67
2023-04-17T07:07:49.751Z,69.70
2023-04-17T07:10:16.461Z,69.30
2023-04-17T07:12:42.859Z,69.31
2023-04-17T07:15:09.668Z,69.12
2023-04-17T07:17:36.043Z,69.23
2023-04-17T07:20:02.868Z,69.13
2023-04-17T07:22:29.241Z,68.50
2023-04-17T07:24:55.626Z,67.58
2023-04-17T07:27:22.031Z,67.62
2023-04-17T07:29:54.192Z,67.41
2023-04-17T07:32:21.970Z,66.65
2023-04-17T07:34:48.672Z,65.85
2023-04-17T07:37:15.664Z,65.65
2023-04-17T07:39:42.334Z,65.52
2023-04-17T07:42:09.109Z,65.60
2023-04-17T07:44:35.540Z,65.54
2023-04-17T07:47:01.969Z,65.53
2023-04-17T07:49:28.391Z,65.34
2023-04-17T07:51:55.931Z,64.54
2023-04-17T07:54:22.328Z,64.58
2023-04-17T07:56:49.366Z,64.33
2023-04-17T07:59:18.807Z,63.91
2023-04-17T08:01:45.218Z,63.09
2023-04-17T08:04:11.979Z,62.06
2023-04-17T08:06:38.962Z,62.35
2023-04-17T08:09:05.458Z,62.16
2023-04-17T08:11:35.686Z,61.90
2023-04-17T08:14:06.523Z,62.02
2023-04-17T08:16:33.440Z,61.66
2023-04-17T08:18:59.840Z,60.47
2023-04-17T08:21:26.773Z,61.24
2023-04-17T08:23:53.139Z,60.80
2023-04-17T08:26:20.476Z,60.64
2023-04-17T08:28:46.989Z,59.51
2023-04-17T08:31:13.919Z,58.86
2023-04-17T08:33:40.345Z,58.75
2023-04-17T08:36:09.656Z,58.14
2023-04-17T08:38:36.433Z,57.67
2023-04-17T08:41:08.018Z,57.60
2023-04-17T08:43:36.063Z,56.39
2023-04-17T08:46:03.448Z,56.18
2023-04-17T08:48:30.645Z,56.10
2023-04-17T08:50:56.999Z,56.28
2023-04-17T08:53:23.366Z,55.10
2023-04-17T08:55:49.796Z,54.52
2023-04-17T08:58:16.433Z,53.68
2023-04-17T09:00:45.131Z,53.10
2023-04-17T09:03:13.375Z,52.56
2023-04-17T09:05:43.273Z,52.99
2023-04-17T09:08:09.666Z,53.06
2023-04-17T09:10:40.447Z,53.30
2023-04-17T09:13:08.370Z,52.23
2023-04-17T09:15:36.143Z,52.50
2023-04-17T09:18:03.629Z,51.75
2023-04-17T09:20:30.273Z,51.64
2023-04-17T09:23:05.200Z,52.02
2023-04-17T09:25:31.833Z,51.66
2023-04-17T09:28:13.858Z,52.19
2023-04-17T09:30:41.207Z,50.89
2023-04-17T09:33:08.846Z,51.25
2023-04-17T09:35:39.907Z,50.75
2023-04-17T09:38:06.685Z,50.80
2023-04-17T09:40:41.662Z,50.74
2023-04-17T09:43:10.432Z,50.04
2023-04-17T09:45:41.416Z,50.29
2023-04-17T09:48:10.270Z,49.91
2023-04-17T09:50:38.632Z,49.44
2023-04-17T09:53:06.554Z,49.76
2023-04-17T09:55:33.536Z,49.16
2023-04-17T09:58:02.840Z,48.84
2023-04-17T10:00:29.786Z,48.22
2023-04-17T10:02:59.053Z,48.54
2023-04-17T10:05:28.774Z,47.39
2023-04-17T10:07:56.195Z,46.84
2023-04-17T10:10:34.086Z,47.25
2023-04-17T10:13:03.396Z,47.51
2023-04-17T10:15:30.508Z,47.59
2023-04-17T10:18:21.636Z,46.33
2023-04-17T10:20:49.191Z,47.67
2023-04-17T10:23:32.569Z,48.23
2023-04-17T10:26:30.012Z,49.05
2023-04-17T10:28:59.545Z,48.03
2023-04-17T10:32:03.949Z,48.36
2023-04-17T10:34:41.756Z,47.64
2023-04-17T10:37:15.033Z,47.61
2023-04-17T10:40:01.805Z,48.46
2023-04-17T10:42:32.942Z,48.44
2023-04-17T10:45:01.588Z,47.62
2023-04-17T10:47:35.287Z,48.17
2023-04-17T10:50:08.778Z,47.95
2023-04-17T10:52:42.560Z,47.01
2023-04-17T10:55:21.965Z,46.47
2023-04-17T10:57:55.493Z,46.33
2023-04-17T11:00:30.292Z,46.25
2023-04-17T11:02:56.975Z,45.56
2023-04-17T11:05:24.155Z,45.23
2023-04-17T11:07:51.557Z,44.12
2023-04-17T11:10:19.939Z,42.60
2023-04-17T11:12:50.017Z,42.58
2023-04-17T11:15:16.666Z,42.21
2023-04-17T11:17:48.025Z,43.28
2023-04-17T11:20:17.405Z,43.01
2023-04-17T11:22:44.709Z,42.57
2023-04-17T11:25:26.087Z,43.74
2023-04-17T11:28:00.476Z,43.36
2023-04-17T11:30:32.424Z,43.17
2023-04-17T11:33:08.734Z,42.63
2023-04-17T11:35:39.968Z,41.57
2023-04-17T11:38:08.633Z,41.64
2023-04-17T11:40:35.312Z,41.30
2023-04-17T11:43:08.387Z,39.20
2023-04-17T11:45:35.830Z,39.82
2023-04-17T11:48:03.540Z,39.26
2023-04-17T11:50:31.836Z,39.28
2023-04-17T11:53:00.759Z,40.76
2023-04-17T11:55:36.366Z,39.88
2023-04-17T11:58:06.277Z,40.33
2023-04-17T12:00:33.301Z,38.99
2023-04-17T12:03:01.799Z,38.92
2023-04-17T12:05:30.659Z,37.63
2023-04-17T12:08:01.845Z,37.95
2023-04-17T12:10:44.756Z,39.42
2023-04-17T12:13:11.831Z,37.48
2023-04-17T12:15:38.986Z,37.33
2023-04-17T12:18:06.202Z,37.64
2023-04-17T12:20:33.908Z,37.39
2023-04-17T12:23:00.772Z,37.44
2023-04-17T12:25:27.704Z,37.91
2023-04-17T12:27:56.457Z,37.65
2023-04-17T12:30:24.221Z,38.12
2023-04-17T12:32:52.073Z,37.60
2023-04-17T12:35:19.570Z,37.95
2023-04-17T12:37:48.560Z,37.15
2023-04-17T12:40:16.780Z,37.05
2023-04-17T12:42:49.324Z,36.45
2023-04-17T12:45:17.000Z,36.50
2023-04-17T12:47:43.950Z,37.01
2023-04-17T12:50:14.231Z,36.62
2023-04-17T12:52:41.441Z,36.78
2023-04-17T12:55:08.863Z,37.17
2023-04-17T12:57:36.574Z,37.22
2023-04-17T13:00:05.994Z,36.57
2023-04-17T13:02:32.847Z,36.58
2023-04-17T13:04:59.317Z,36.03
2023-04-17T13:07:25.698Z,36.20
2023-04-17T13:09:52.164Z,35.99
2023-04-17T13:12:18.486Z,35.98
2023-04-17T13:14:44.916Z,36.32
2023-04-17T13:17:11.407Z,35.93
2023-04-17T13:19:39.870Z,36.15
2023-04-17T13:22:07.015Z,35.68
2023-04-17T13:24:34.818Z,35.19
2023-04-17T13:27:01.488Z,35.18
2023-04-17T13:29:27.906Z,35.60
2023-04-17T13:31:54.406Z,36.44
2023-04-17T13:34:20.823Z,37.26
2023-04-17T13:36:47.507Z,37.57
2023-04-17T13:39:14.932Z,37.80
2023-04-17T13:41:42.588Z,37.45
2023-04-17T13:44:09.751Z,37.51
2023-04-17T13:46:36.451Z,37.58
2023-04-17T13:49:02.988Z,38.56
2023-04-17T13:51:29.416Z,38.67
2023-04-17T13:53:58.621Z,37.97
2023-04-17T13:56:26.606Z,37.74
2023-04-17T13:58:57.540Z,36.80
2023-04-17T14:01:24.118Z,36.80
2023-04-17T14:03:50.750Z,36.74
2023-04-17T14:06:20.135Z,36.70
2023-04-17T14:08:46.556Z,36.32
2023-04-17T14:11:13.366Z,36.54
2023-04-17T14:13:40.246Z,36.26
2023-04-17T14:16:06.942Z,35.67
2023-04-17T14:18:33.450Z,35.79
2023-04-17T14:20:59.889Z,35.24
2023-04-17T14:23:26.229Z,35.60
2023-04-17T14:25:52.848Z,36.61
2023-04-17T14:28:20.875Z,36.52
2023-04-17T14:30:48.121Z,36.78
2023-04-17T14:33:14.586Z,37.91
2023-04-17T14:35:41.249Z,38.11
2023-04-17T14:38:08.052Z,37.00
2023-04-17T14:40:34.414Z,37.26
2023-04-17T14:43:00.809Z,36.78
2023-04-17T14:45:27.272Z,36.72
2023-04-17T14:47:53.776Z,36.36
2023-04-17T14:50:20.294Z,36.71
2023-04-17T14:52:46.871Z,36.93
2023-04-17T14:55:13.484Z,36.56
2023-04-17T14:57:39.931Z,36.86
2023-04-17T15:00:08.162Z,37.27
2023-04-17T15:02:38.580Z,37.16
2023-04-17T15:05:06.206Z,37.09
2023-04-17T15:07:32.754Z,37.01
2023-04-17T15:09:59.380Z,36.16
2023-04-17T15:12:26.136Z,36.42
2023-04-17T15:14:52.596Z,35.40
2023-04-17T15:17:19.238Z,35.80
2023-04-17T15:19:45.641Z,35.91
2023-04-17T15:22:12.061Z,35.57
2023-04-17T15:24:38.546Z,36.04
2023-04-17T15:27:04.918Z,35.78
2023-04-17T15:29:31.283Z,35.02
2023-04-17T15:31:57.759Z,35.80
2023-04-17T15:34:24.909Z,34.68
2023-04-17T15:36:51.447Z,34.61
2023-04-17T15:39:18.003Z,34.73
2023-04-17T15:41:44.450Z,34.85
2023-04-17T15:44:10.900Z,34.48
2023-04-17T15:46:37.332Z,34.38
2023-04-17T15:49:08.353Z,34.32
2023-04-17T15:51:35.721Z,34.89
2023-04-17T15:54:02.163Z,34.96
2023-04-17T15:56:28.586Z,35.20
2023-04-17T15:58:55.128Z,34.94
2023-04-17T16:01:21.497Z,34.77
2023-04-17T16:03:48.158Z,34.62
2023-04-17T16:06:14.700Z,34.53
2023-04-17T16:08:41.077Z,34.80
2023-04-17T16:11:07.480Z,34.70
2023-04-17T16:13:33.845Z,35.86
2023-04-17T16:16:00.315Z,35.89
2023-04-17T16:18:26.786Z,36.55
2023-04-17T16:20:53.151Z,36.37
2023-04-17T16:23:19.651Z,36.50
2023-04-17T16:25:46.045Z,36.64
2023-04-17T16:28:12.427Z,37.33
2023-04-17T16:30:38.933Z,37.00
2023-04-17T16:33:05.372Z,37.26
2023-04-17T16:35:31.703Z,37.34
2023-04-17T16:37:58.345Z,37.75
2023-04-17T16:40:26.506Z,38.30
2023-04-17T16:42:53.327Z,37.83
2023-04-17T16:45:19.891Z,38.07
2023-04-17T16:47:46.281Z,38.06
2023-04-17T16:50:12.790Z,37.33
2023-04-17T16:52:40.688Z,37.87
2023-04-17T16:55:07.915Z,37.54
2023-04-17T16:57:38.023Z,37.74
2023-04-17T17:00:05.384Z,37.69
2023-04-17T17:02:31.890Z,37.98
2023-04-17T17:04:58.253Z,38.33
2023-04-17T17:07:24.715Z,38.12
2023-04-17T17:09:51.063Z,38.42
2023-04-17T17:12:17.491Z,37.88
2023-04-17T17:14:43.982Z,38.11
2023-04-17T17:17:10.500Z,38.61
2023-04-17T17:19:36.853Z,38.74
2023-04-17T17:22:03.253Z,38.38
2023-04-17T17:24:30.869Z,38.94
2023-04-17T17:26:57.243Z,38.74
2023-04-17T17:29:23.657Z,38.51
2023-04-17T17:31:50.084Z,38.90
2023-04-17T17:34:25.999Z,39.12
2023-04-17T17:36:52.840Z,38.90
2023-04-17T17:39:21.018Z,38.97
2023-04-17T17:41:48.034Z,39.16
2023-04-17T17:44:14.906Z,38.55
2023-04-17T17:46:41.603Z,38.87
2023-04-17T17:49:08.146Z,38.89
2023-04-17T17:51:34.517Z,38.90
2023-04-17T17:54:01.005Z,39.12
2023-04-17T17:56:28.421Z,38.78
2023-04-17T17:58:54.820Z,38.68
2023-04-17T18:01:23.355Z,38.51
2023-04-17T18:03:50.183Z,38.32
2023-04-17T18:06:16.831Z,38.44
2023-04-17T18:08:43.328Z,38.65
2023-04-17T18:11:09.667Z,38.84
2023-04-17T18:13:35.992Z,38.89
2023-04-17T18:16:05.919Z,38.90
2023-04-17T18:18:32.322Z,39.05
2023-04-17T18:20:58.674Z,38.98
2023-04-17T18:23:25.555Z,39.23
2023-04-17T18:26:02.804Z,39.85
2023-04-17T18:28:29.447Z,40.13
2023-04-17T18:30:55.944Z,39.98
2023-04-17T18:33:22.315Z,40.05
2023-04-17T18:35:49.172Z,39.95
2023-04-17T18:38:15.761Z,40.20
2023-04-17T18:40:42.364Z,40.26
2023-04-17T18:43:10.048Z,40.33
2023-04-17T18:45:36.829Z,40.36
2023-04-17T18:48:03.632Z,40.21
2023-04-17T18:50:30.498Z,40.63
2023-04-17T18:52:57.185Z,40.38
2023-04-17T18:55:23.598Z,40.31
2023-04-17T18:57:49.912Z,40.47
2023-04-17T19:00:16.466Z,39.98
2023-04-17T19:02:42.938Z,39.63
2023-04-17T19:05:09.595Z,39.38
2023-04-17T19:07:36.154Z,39.39
2023-04-17T19:10:02.542Z,39.23
2023-04-17T19:12:30.390Z,39.72
2023-04-17T19:15:00.067Z,39.55
2023-04-17T19:17:26.520Z,39.87
2023-04-17T19:19:52.952Z,39.97
2023-04-17T19:22:19.481Z,40.13
2023-04-17T19:24:49.706Z,39.89
2023-04-17T19:27:16.890Z,39.72
2023-04-17T19:29:43.479Z,39.81
2023-04-17T19:32:10.593Z,39.74
2023-04-17T19:34:37.045Z,39.05
2023-04-17T19:37:03.749Z,39.44
2023-04-17T19:39:30.228Z,39.20
2023-04-17T19:41:56.962Z,39.08
2023-04-17T19:44:23.382Z,38.97
2023-04-17T19:46:50.364Z,38.85
2023-04-17T19:49:16.806Z,38.61
2023-04-17T19:51:43.242Z,38.57
2023-04-17T19:54:11.887Z,38.56
2023-04-17T19:56:39.269Z,38.88
2023-04-17T19:59:05.686Z,38.78
2023-04-17T20:01:32.739Z,38.60
2023-04-17T20:03:59.576Z,38.14
2023-04-17T20:06:26.699Z,38.58
2023-04-17T20:08:53.149Z,38.56
2023-04-17T20:11:19.860Z,38.38
2023-04-17T20:13:46.522Z,38.44
2023-04-17T20:16:12.882Z,38.52
2023-04-17T20:18:40.003Z,38.50
2023-04-17T20:21:06.516Z,38.54
2023-04-17T20:23:33.026Z,38.73
2023-04-17T20:25:59.474Z,38.72
2023-04-17T20:28:28.541Z,38.85
2023-04-17T20:30:55.107Z,39.05
2023-04-17T20:33:21.557Z,39.36
2023-04-17T20:35:47.953Z,39.38
2023-04-17T20:38:14.307Z,39.48
2023-04-17T20:40:40.809Z,40.01
2023-04-17T20:43:07.236Z,40.03
2023-04-17T20:45:33.695Z,40.17
2023-04-17T20:48:00.253Z,40.41
2023-04-17T20:50:26.740Z,40.68
2023-04-17T20:52:53.157Z,40.97
2023-04-17T20:55:20.234Z,41.01
2023-04-17T20:57:47.407Z,41.26
2023-04-17T21:00:14.294Z,41.05
2023-04-17T21:02:40.983Z,41.76
2023-04-17T21:05:08.082Z,41.65
2023-04-17T21:07:34.500Z,42.14
2023-04-17T21:10:00.981Z,42.21
2023-04-17T21:12:27.999Z,42.49
2023-04-17T21:14:54.444Z,42.67
2023-04-17T21:17:20.943Z,43.08
2023-04-17T21:19:47.501Z,43.29
2023-04-17T21:22:13.982Z,43.53
2023-04-17T21:24:40.607Z,43.76
2023-04-17T21:27:07.068Z,44.10
2023-04-17T21:29:33.509Z,44.33
2023-04-17T21:32:00.038Z,44.63
2023-04-17T21:34:26.770Z,44.90
2023-04-17T21:36:54.249Z,44.95
2023-04-17T21:39:21.722Z,45.46
2023-04-17T21:41:48.237Z,45.36
2023-04-17T21:44:15.139Z,45.61
2023-04-17T21:46:43.844Z,45.74
2023-04-17T21:49:10.390Z,45.68
2023-04-17T21:51:36.765Z,46.16
2023-04-17T21:54:03.450Z,46.49
2023-04-17T21:56:30.026Z,46.52
2023-04-17T21:58:56.426Z,46.65
2023-04-17T22:01:22.811Z,46.83
2023-04-17T22:03:49.219Z,47.51
2023-04-17T22:06:15.684Z,47.23
2023-04-17T22:08:42.082Z,47.26
2023-04-17T22:11:08.618Z,47.55
2023-04-17T22:13:35.053Z,47.62
2023-04-17T22:16:02.319Z,47.77
2023-04-17T22:18:28.949Z,47.87
2023-04-17T22:20:55.449Z,48.30
2023-04-17T22:23:21.928Z,48.43
2023-04-17T22:25:48.334Z,48.70
2023-04-17T22:28:14.833Z,48.68
2023-04-17T22:30:41.262Z,49.01
2023-04-17T22:33:07.640Z,48.96
2023-04-17T22:35:33.982Z,49.06
2023-04-17T22:38:00.361Z,49.28
2023-04-17T22:40:26.735Z,49.34
2023-04-17T22:42:53.163Z,49.66
2023-04-17T22:45:19.624Z,49.63
2023-04-17T22:47:46.050Z,49.78
2023-04-17T22:50:13.818Z,49.80
2023-04-17T22:52:40.338Z,50.09
2023-04-17T22:55:07.096Z,50.31
2023-04-17T22:57:33.422Z,50.31
2023-04-17T22:59:59.857Z,50.31
2023-04-17T23:02:26.460Z,50.38
2023-04-17T23:04:52.936Z,50.46
2023-04-17T23:07:19.368Z,50.71
2023-04-17T23:09:46.391Z,50.68
2023-04-17T23:12:12.846Z,50.75
2023-04-17T23:14:39.292Z,50.97
2023-04-17T23:17:06.516Z,50.92
2023-04-17T23:19:32.973Z,51.20
2023-04-17T23:22:01.072Z,51.14
2023-04-17T23:24:27.872Z,50.97
2023-04-17T23:26:55.061Z,51.21
2023-04-17T23:29:21.467Z,51.51
2023-04-17T23:31:48.584Z,51.73
2023-04-17T23:34:15.255Z,51.76
2023-04-17T23:36:41.816Z,51.62
2023-04-17T23:39:08.229Z,51.78
2023-04-17T23:41:35.490Z,51.84
2023-04-17T23:44:03.763Z,51.85
2023-04-17T23:46:30.785Z,52.29
2023-04-17T23:48:57.450Z,52.22
2023-04-17T23:51:23.842Z,52.34
2023-04-17T23:53:50.604Z,52.29
2023-04-17T23:56:18.066Z,52.74
2023-04-17T23:58:44.425Z,52.45
